Weather at Darwin International Airport

Public forecast

Using degrees Celsius for public forecast. Weather courtesy of forecast.io.

Current aviation weather report (METAR) for Darwin International Airport

Retrieved 2020/10/31 18:30 UTC (28 minutes ago):

YPDN 311830Z AUTO 07003KT 9999 // NCD 26/24 Q1008

Aviation forecast (TAF) for Darwin International Airport

Retrieved 2020/10/31 18:00 UTC (58 minutes ago):

TAF YPDN 311704Z 3118/0200 07004KT 9999 SCT020 FM312300 03010KT 9999 SCT025 FM010200 33012KT 9999 SCT028 FM011500 VRB03KT 9999 SCT020